Time;durP1;ratioP1;P1;durP2;ratioP2;P2;SDS_P1;SDS_P2;PMS_P1;PMS_P2;Temp;Humidity;BMP_temperature;BMP_pressure;BME280_temperature;BME280_humidity;BME280_pressure;Samples;Min_cycle;Max_cycle;Signal;HPM_P1;HPM_P2
2022/01/09 00:00:42;;;;;;;3.03;1.00;;;;;;;;;;5097598;27;20053;-70
2022/01/09 00:03:12;;;;;;;1.92;0.80;;;;;;;;;;5096859;27;20042;-70
2022/01/09 00:05:38;;;;;;;3.20;0.90;;;;;;;;;;5093538;27;20050;-69
2022/01/09 00:08:04;;;;;;;1.83;0.85;;;;;;;;;;5096634;27;20051;-70
2022/01/09 00:10:32;;;;;;;1.80;0.80;;;;;;;;;;5080442;27;21099;-70
2022/01/09 00:12:58;;;;;;;2.42;0.90;;;;;;;;;;5079528;27;20750;-70
2022/01/09 00:15:24;;;;;;;4.07;1.00;;;;;;;;;;5076040;27;20138;-70
2022/01/09 00:17:50;;;;;;;1.92;0.98;;;;;;;;;;5095512;27;20641;-71
2022/01/09 00:20:17;;;;;;;2.38;1.00;;;;;;;;;;5097012;27;20053;-71
2022/01/09 00:22:46;;;;;;;1.77;0.70;;;;;;;;;;5096188;27;20043;-71
2022/01/09 00:25:13;;;;;;;2.30;0.85;;;;;;;;;;5091674;27;20759;-71
2022/01/09 00:27:39;;;;;;;2.53;0.90;;;;;;;;;;5095674;27;20096;-70
2022/01/09 00:30:06;;;;;;;2.25;0.70;;;;;;;;;;5095736;27;20630;-70
2022/01/09 00:32:32;;;;;;;2.38;0.90;;;;;;;;;;5096371;27;20146;-70
2022/01/09 00:34:58;;;;;;;1.92;0.80;;;;;;;;;;5092324;27;20598;-71
2022/01/09 00:37:24;;;;;;;2.35;0.82;;;;;;;;;;5112313;27;20168;-71
2022/01/09 00:39:51;;;;;;;2.72;0.90;;;;;;;;;;5096093;27;20547;-71
2022/01/09 00:42:18;;;;;;;2.15;0.70;;;;;;;;;;5112407;27;20650;-71
2022/01/09 00:44:44;;;;;;;2.90;0.90;;;;;;;;;;5092122;27;20058;-71
2022/01/09 00:47:10;;;;;;;1.80;0.75;;;;;;;;;;5095256;27;20047;-70
2022/01/09 00:49:36;;;;;;;4.85;0.80;;;;;;;;;;5079219;27;20614;-71
2022/01/09 00:52:01;;;;;;;2.13;0.93;;;;;;;;;;5095341;27;20050;-70
2022/01/09 00:54:27;;;;;;;2.20;0.80;;;;;;;;;;5092695;27;20439;-71
2022/01/09 00:56:53;;;;;;;2.78;0.90;;;;;;;;;;5095797;27;20053;-71
2022/01/09 00:59:19;;;;;;;1.88;0.70;;;;;;;;;;5096216;27;20131;-71
2022/01/09 01:01:45;;;;;;;2.40;0.85;;;;;;;;;;5095174;27;20676;-71
2022/01/09 01:04:11;;;;;;;1.90;0.80;;;;;;;;;;5109971;27;20047;-71
2022/01/09 01:06:37;;;;;;;2.13;0.70;;;;;;;;;;5112049;27;20035;-71
2022/01/09 01:09:03;;;;;;;2.33;0.80;;;;;;;;;;5079235;27;20035;-71
2022/01/09 01:11:29;;;;;;;1.70;0.80;;;;;;;;;;5096288;27;20619;-71
2022/01/09 01:13:55;;;;;;;1.85;0.70;;;;;;;;;;5094044;27;20066;-71
2022/01/09 01:16:21;;;;;;;1.92;0.75;;;;;;;;;;5093728;27;20051;-71
2022/01/09 01:18:47;;;;;;;1.30;0.70;;;;;;;;;;5094784;27;20054;-70
2022/01/09 01:21:13;;;;;;;1.30;0.60;;;;;;;;;;5078643;27;20464;-71
2022/01/09 01:23:40;;;;;;;1.27;0.68;;;;;;;;;;5095056;27;20075;-71
2022/01/09 01:26:06;;;;;;;2.13;0.80;;;;;;;;;;5091847;27;20051;-71
2022/01/09 01:28:33;;;;;;;1.40;0.70;;;;;;;;;;5128697;27;20059;-71
2022/01/09 01:30:59;;;;;;;2.13;0.80;;;;;;;;;;5129882;27;20513;-71
2022/01/09 01:33:25;;;;;;;1.98;0.70;;;;;;;;;;5128457;27;21324;-71
2022/01/09 01:35:51;;;;;;;1.65;0.75;;;;;;;;;;5074374;27;20103;-71
2022/01/09 01:38:17;;;;;;;2.65;0.93;;;;;;;;;;5093811;27;20777;-71
2022/01/09 01:40:43;;;;;;;3.33;0.82;;;;;;;;;;5094394;27;20471;-71
2022/01/09 01:43:09;;;;;;;2.88;0.70;;;;;;;;;;5078198;27;20165;-71
2022/01/09 01:45:35;;;;;;;2.67;0.82;;;;;;;;;;5092017;27;20127;-71
2022/01/09 01:48:09;;;;;;;1.88;0.80;;;;;;;;;;5095281;27;20055;-71
2022/01/09 01:50:38;;;;;;;1.17;0.70;;;;;;;;;;5070034;27;20058;-71
2022/01/09 01:53:06;;;;;;;1.70;0.60;;;;;;;;;;5086014;28;20047;-71
2022/01/09 01:55:37;;;;;;;1.80;0.70;;;;;;;;;;5071624;28;20138;-71
2022/01/09 01:58:04;;;;;;;1.60;0.65;;;;;;;;;;5070711;28;20051;-71
2022/01/09 02:00:30;;;;;;;2.00;0.90;;;;;;;;;;5085181;28;20145;-71
2022/01/09 02:02:56;;;;;;;1.05;0.63;;;;;;;;;;5085599;28;20730;-71
2022/01/09 02:05:22;;;;;;;1.42;0.70;;;;;;;;;;5084853;27;20050;-71
2022/01/09 02:07:50;;;;;;;2.00;0.70;;;;;;;;;;5105439;28;20527;-72
2022/01/09 02:10:16;;;;;;;1.83;0.70;;;;;;;;;;5106442;28;20568;-71
2022/01/09 02:12:42;;;;;;;1.73;0.68;;;;;;;;;;5104944;28;20051;-70
2022/01/09 02:15:32;;;;;;;1.35;0.70;;;;;;;;;;5105836;28;20195;-70
2022/01/09 02:17:59;;;;;;;2.00;0.73;;;;;;;;;;5105394;28;20039;-71
2022/01/09 02:20:25;;;;;;;1.48;0.70;;;;;;;;;;5105825;28;20047;-70
2022/01/09 02:22:51;;;;;;;1.67;0.70;;;;;;;;;;5089084;28;20078;-70
2022/01/09 02:25:17;;;;;;;1.30;0.70;;;;;;;;;;5089406;28;20043;-70
2022/01/09 02:27:43;;;;;;;1.90;0.60;;;;;;;;;;5088788;28;20043;-71
2022/01/09 02:30:10;;;;;;;1.50;0.63;;;;;;;;;;5089300;28;20050;-71
2022/01/09 02:32:36;;;;;;;2.28;0.82;;;;;;;;;;5104505;28;20039;-72
2022/01/09 02:35:02;;;;;;;1.30;0.65;;;;;;;;;;5106409;28;20512;-71
2022/01/09 02:37:28;;;;;;;2.00;0.70;;;;;;;;;;5104603;28;20431;-70
2022/01/09 02:39:54;;;;;;;3.20;0.77;;;;;;;;;;5105935;28;20039;-70
2022/01/09 02:42:22;;;;;;;1.48;0.63;;;;;;;;;;5088553;28;20538;-70
2022/01/09 02:44:48;;;;;;;3.00;0.90;;;;;;;;;;5088923;28;20092;-70
2022/01/09 02:47:14;;;;;;;1.85;0.80;;;;;;;;;;5106548;27;20035;-70
2022/01/09 02:49:45;;;;;;;1.75;0.80;;;;;;;;;;5110106;27;20039;-70
2022/01/09 02:52:24;;;;;;;1.35;0.70;;;;;;;;;;5092202;27;20059;-70
2022/01/09 02:55:11;;;;;;;1.63;0.68;;;;;;;;;;5110202;27;20126;-70
2022/01/09 02:57:38;;;;;;;1.73;0.80;;;;;;;;;;5108815;27;20736;-70
2022/01/09 03:00:06;;;;;;;1.42;0.60;;;;;;;;;;5110030;27;20070;-70
2022/01/09 03:02:32;;;;;;;2.03;0.80;;;;;;;;;;5108456;27;20031;-70
2022/01/09 03:04:58;;;;;;;1.85;0.70;;;;;;;;;;5110023;27;20043;-70
2022/01/09 03:07:24;;;;;;;3.17;1.00;;;;;;;;;;5107954;27;20122;-70
2022/01/09 03:09:50;;;;;;;1.60;0.80;;;;;;;;;;5092843;27;20561;-70
2022/01/09 03:12:17;;;;;;;2.38;0.90;;;;;;;;;;5108315;27;20050;-70
2022/01/09 03:14:43;;;;;;;1.55;0.68;;;;;;;;;;5127733;27;20055;-70
2022/01/09 03:17:09;;;;;;;1.60;0.80;;;;;;;;;;5090794;27;20442;-70
2022/01/09 03:19:35;;;;;;;2.75;0.82;;;;;;;;;;5107784;27;20086;-70
2022/01/09 03:22:01;;;;;;;2.40;0.80;;;;;;;;;;5105338;27;20054;-70
2022/01/09 03:24:27;;;;;;;1.38;0.70;;;;;;;;;;5109800;27;20532;-70
2022/01/09 03:26:53;;;;;;;2.15;0.80;;;;;;;;;;5091484;27;20035;-70
2022/01/09 03:29:19;;;;;;;1.65;0.70;;;;;;;;;;5109863;27;20047;-70
2022/01/09 03:31:45;;;;;;;1.45;0.70;;;;;;;;;;5126245;27;20583;-70
2022/01/09 03:34:11;;;;;;;2.63;0.80;;;;;;;;;;5127840;27;20130;-70
2022/01/09 03:36:36;;;;;;;2.05;0.88;;;;;;;;;;5108520;27;20045;-70
2022/01/09 03:39:03;;;;;;;1.75;0.70;;;;;;;;;;5109506;27;20046;-70
2022/01/09 03:41:29;;;;;;;2.22;0.65;;;;;;;;;;5127409;27;20118;-70
2022/01/09 03:43:55;;;;;;;1.67;0.80;;;;;;;;;;5108078;27;20086;-70
2022/01/09 03:46:20;;;;;;;2.08;0.90;;;;;;;;;;5108514;27;20079;-70
2022/01/09 03:48:47;;;;;;;2.35;0.70;;;;;;;;;;5108002;27;20474;-70
2022/01/09 03:51:13;;;;;;;1.63;0.65;;;;;;;;;;5108841;27;20524;-70
2022/01/09 03:53:39;;;;;;;1.27;0.60;;;;;;;;;;5105462;27;20039;-70
2022/01/09 03:56:05;;;;;;;2.30;0.80;;;;;;;;;;5109161;27;21126;-70
2022/01/09 03:58:35;;;;;;;1.33;0.70;;;;;;;;;;5107835;27;20660;-70
2022/01/09 04:01:01;;;;;;;2.55;0.90;;;;;;;;;;5122587;27;20050;-70
2022/01/09 04:03:27;;;;;;;1.67;0.63;;;;;;;;;;5103767;27;20042;-70
2022/01/09 04:05:53;;;;;;;2.35;0.73;;;;;;;;;;5107965;27;20126;-70
2022/01/09 04:08:19;;;;;;;3.17;0.77;;;;;;;;;;5126145;27;20749;-70
2022/01/09 04:10:47;;;;;;;2.53;0.80;;;;;;;;;;5108539;27;20046;-71
2022/01/09 04:13:14;;;;;;;2.03;0.75;;;;;;;;;;5091077;27;20067;-70
2022/01/09 04:15:46;;;;;;;2.42;0.80;;;;;;;;;;5108214;27;20572;-70
2022/01/09 04:18:13;;;;;;;1.92;0.77;;;;;;;;;;5091178;27;20046;-70
2022/01/09 04:20:39;;;;;;;2.35;0.95;;;;;;;;;;5108020;27;20156;-70
2022/01/09 04:23:05;;;;;;;3.88;0.90;;;;;;;;;;5107179;27;20047;-70
2022/01/09 04:25:31;;;;;;;2.65;0.80;;;;;;;;;;5108468;27;20047;-70
2022/01/09 04:27:57;;;;;;;4.50;1.00;;;;;;;;;;5125443;27;20098;-70
2022/01/09 04:30:23;;;;;;;2.78;0.80;;;;;;;;;;5107671;27;20161;-70
2022/01/09 04:32:49;;;;;;;2.70;0.88;;;;;;;;;;5107020;27;20078;-71
2022/01/09 04:35:15;;;;;;;3.50;0.90;;;;;;;;;;5107876;27;20507;-71
2022/01/09 04:37:41;;;;;;;3.00;0.80;;;;;;;;;;5107173;27;20046;-71
2022/01/09 04:40:10;;;;;;;2.60;0.80;;;;;;;;;;5108541;27;20087;-71
2022/01/09 04:42:42;;;;;;;3.47;0.88;;;;;;;;;;5089664;27;20038;-71
2022/01/09 04:45:09;;;;;;;2.67;1.00;;;;;;;;;;5090823;27;20047;-70
2022/01/09 04:47:35;;;;;;;5.57;1.10;;;;;;;;;;5105791;27;20043;-70
2022/01/09 04:50:02;;;;;;;4.18;1.10;;;;;;;;;;5083803;27;20772;-71
2022/01/09 04:52:33;;;;;;;6.43;1.35;;;;;;;;;;5065118;27;20047;-70
2022/01/09 04:54:59;;;;;;;4.70;1.10;;;;;;;;;;5087598;28;20055;-70
2022/01/09 04:57:25;;;;;;;4.60;1.48;;;;;;;;;;5094351;27;20130;-71
2022/01/09 04:59:51;;;;;;;3.90;1.20;;;;;;;;;;5126334;27;20165;-71
2022/01/09 05:02:17;;;;;;;4.18;1.10;;;;;;;;;;5089742;27;20039;-70
2022/01/09 05:04:43;;;;;;;4.13;1.02;;;;;;;;;;5106844;27;20046;-71
2022/01/09 05:07:09;;;;;;;4.80;1.20;;;;;;;;;;5105787;27;20634;-70
2022/01/09 05:09:36;;;;;;;5.15;1.20;;;;;;;;;;5089852;27;20039;-71
2022/01/09 05:12:02;;;;;;;3.17;1.00;;;;;;;;;;5106458;27;20045;-71
2022/01/09 05:14:28;;;;;;;3.95;1.20;;;;;;;;;;5090327;27;20508;-70
2022/01/09 05:16:54;;;;;;;4.15;1.02;;;;;;;;;;5089245;27;20086;-70
2022/01/09 05:19:22;;;;;;;3.83;1.05;;;;;;;;;;5107806;27;20039;-70
2022/01/09 05:21:49;;;;;;;4.90;1.27;;;;;;;;;;5105394;27;20043;-70
2022/01/09 05:24:15;;;;;;;5.53;1.52;;;;;;;;;;5107461;27;20061;-70
2022/01/09 05:26:41;;;;;;;4.32;1.20;;;;;;;;;;5105720;27;20043;-70
2022/01/09 05:29:07;;;;;;;5.80;1.30;;;;;;;;;;5107127;27;20039;-70
2022/01/09 05:31:33;;;;;;;4.20;1.33;;;;;;;;;;5106852;27;20156;-71
2022/01/09 05:33:59;;;;;;;6.32;1.27;;;;;;;;;;5107492;27;20118;-71
2022/01/09 05:36:25;;;;;;;4.60;1.27;;;;;;;;;;5106598;27;20499;-70
2022/01/09 05:38:51;;;;;;;4.97;1.40;;;;;;;;;;5106108;27;20046;-70
2022/01/09 05:41:18;;;;;;;6.82;1.58;;;;;;;;;;5089856;27;20095;-71
2022/01/09 05:43:43;;;;;;;5.10;1.15;;;;;;;;;;5088215;28;20044;-71
2022/01/09 05:46:11;;;;;;;6.18;1.45;;;;;;;;;;5085928;28;20643;-71
2022/01/09 05:48:37;;;;;;;4.15;1.25;;;;;;;;;;5103453;27;20070;-71
2022/01/09 05:51:03;;;;;;;7.30;1.42;;;;;;;;;;5106520;27;20074;-71
2022/01/09 05:53:29;;;;;;;6.15;1.70;;;;;;;;;;5089255;27;20038;-71
2022/01/09 05:55:55;;;;;;;8.15;2.00;;;;;;;;;;5089423;27;20049;-71
2022/01/09 05:58:21;;;;;;;5.25;1.33;;;;;;;;;;5124006;27;20055;-70
2022/01/09 06:00:47;;;;;;;6.90;1.75;;;;;;;;;;5106190;27;20095;-71
2022/01/09 06:03:13;;;;;;;7.35;1.50;;;;;;;;;;5105398;27;20535;-71
2022/01/09 06:05:39;;;;;;;7.13;1.50;;;;;;;;;;5107240;27;20058;-71
2022/01/09 06:08:05;;;;;;;6.70;1.80;;;;;;;;;;5123513;27;20047;-71
2022/01/09 06:10:31;;;;;;;7.20;1.55;;;;;;;;;;5106379;28;20055;-71
2022/01/09 06:12:57;;;;;;;4.50;1.40;;;;;;;;;;5105062;28;20047;-71
2022/01/09 06:15:23;;;;;;;7.45;1.60;;;;;;;;;;5088928;28;20122;-71
2022/01/09 06:17:49;;;;;;;7.13;2.05;;;;;;;;;;5105120;28;20047;-71
2022/01/09 06:20:15;;;;;;;5.63;1.55;;;;;;;;;;5106088;28;20054;-71
2022/01/09 06:22:42;;;;;;;7.00;1.70;;;;;;;;;;5090957;27;20480;-71
2022/01/09 06:25:08;;;;;;;7.47;1.88;;;;;;;;;;5110776;27;20047;-71
2022/01/09 06:27:35;;;;;;;7.82;1.83;;;;;;;;;;5110148;27;20133;-71
2022/01/09 06:30:01;;;;;;;7.40;2.05;;;;;;;;;;5129002;27;20457;-71
2022/01/09 06:32:27;;;;;;;6.40;1.50;;;;;;;;;;5092133;27;20035;-71
2022/01/09 06:34:53;;;;;;;6.65;1.88;;;;;;;;;;5110866;27;20105;-71
2022/01/09 06:37:19;;;;;;;7.20;1.50;;;;;;;;;;5127470;27;20059;-71
2022/01/09 06:39:45;;;;;;;7.18;1.80;;;;;;;;;;5101866;27;20042;-71
2022/01/09 06:42:11;;;;;;;5.63;1.60;;;;;;;;;;5100082;27;20032;-71
2022/01/09 06:44:37;;;;;;;6.13;1.60;;;;;;;;;;5125892;27;20074;-71
2022/01/09 06:47:03;;;;;;;6.20;1.60;;;;;;;;;;5109675;27;20667;-71
2022/01/09 06:49:30;;;;;;;7.78;1.83;;;;;;;;;;5110116;27;20039;-71
2022/01/09 06:51:56;;;;;;;5.53;1.52;;;;;;;;;;5108586;27;20047;-71
2022/01/09 06:54:22;;;;;;;7.55;1.75;;;;;;;;;;5110451;27;20595;-71
2022/01/09 06:56:49;;;;;;;5.15;1.60;;;;;;;;;;5108658;27;20043;-72
2022/01/09 06:59:15;;;;;;;5.93;1.80;;;;;;;;;;5109845;27;20042;-71
2022/01/09 07:01:41;;;;;;;8.30;1.70;;;;;;;;;;5089966;27;20035;-71
2022/01/09 07:04:07;;;;;;;6.10;1.45;;;;;;;;;;5108041;27;20646;-71
2022/01/09 07:06:33;;;;;;;7.35;1.70;;;;;;;;;;5106321;27;20046;-71
2022/01/09 07:08:58;;;;;;;6.68;1.55;;;;;;;;;;5127214;27;20035;-71
2022/01/09 07:11:25;;;;;;;5.90;1.48;;;;;;;;;;5109800;27;20047;-71
2022/01/09 07:13:50;;;;;;;7.95;1.58;;;;;;;;;;5105429;28;20059;-71
2022/01/09 07:16:16;;;;;;;5.80;1.42;;;;;;;;;;5106170;28;20051;-71
2022/01/09 07:18:42;;;;;;;6.20;1.75;;;;;;;;;;5087794;28;20123;-71
2022/01/09 07:21:08;;;;;;;6.35;1.98;;;;;;;;;;5105411;28;20126;-71
2022/01/09 07:23:34;;;;;;;6.78;1.35;;;;;;;;;;5104122;28;20564;-71
2022/01/09 07:26:00;;;;;;;7.40;1.80;;;;;;;;;;5106164;28;20108;-71
2022/01/09 07:28:26;;;;;;;8.07;1.67;;;;;;;;;;5104215;28;20043;-71
2022/01/09 07:30:52;;;;;;;6.47;1.80;;;;;;;;;;5088940;28;20597;-71
2022/01/09 07:33:18;;;;;;;5.95;1.50;;;;;;;;;;5102991;28;20122;-71
2022/01/09 07:35:45;;;;;;;6.47;1.60;;;;;;;;;;5104916;28;20075;-71
2022/01/09 07:38:11;;;;;;;6.63;1.52;;;;;;;;;;5103116;28;20048;-71
2022/01/09 07:40:37;;;;;;;5.25;1.27;;;;;;;;;;5105103;28;20035;-71
2022/01/09 07:43:03;;;;;;;8.35;2.08;;;;;;;;;;5102940;28;20039;-72
2022/01/09 07:45:29;;;;;;;6.35;1.50;;;;;;;;;;5080685;28;20080;-71
2022/01/09 07:47:56;;;;;;;5.95;1.42;;;;;;;;;;5052774;28;20057;-71
2022/01/09 07:50:22;;;;;;;5.70;1.40;;;;;;;;;;5062236;28;20459;-71
2022/01/09 07:52:48;;;;;;;6.97;1.80;;;;;;;;;;5074792;28;20039;-71
2022/01/09 07:55:14;;;;;;;5.90;1.25;;;;;;;;;;5105965;28;20054;-71
2022/01/09 07:57:41;;;;;;;6.95;1.50;;;;;;;;;;5103529;28;20032;-71
2022/01/09 08:00:08;;;;;;;8.50;1.80;;;;;;;;;;5105443;28;20115;-71
2022/01/09 08:02:35;;;;;;;6.75;1.58;;;;;;;;;;5103438;28;20036;-71
2022/01/09 08:05:01;;;;;;;7.13;1.52;;;;;;;;;;5088502;28;20052;-72
2022/01/09 08:07:27;;;;;;;6.10;1.60;;;;;;;;;;5086134;28;20048;-71
2022/01/09 08:09:52;;;;;;;6.65;1.60;;;;;;;;;;5105399;28;20046;-72
2022/01/09 08:12:18;;;;;;;5.00;1.35;;;;;;;;;;5100894;28;20075;-71
2022/01/09 08:14:45;;;;;;;7.05;1.60;;;;;;;;;;5108195;27;20419;-72
2022/01/09 08:17:11;;;;;;;6.13;1.67;;;;;;;;;;5107244;27;20701;-72
2022/01/09 08:19:38;;;;;;;4.72;1.25;;;;;;;;;;5108340;27;20035;-72
2022/01/09 08:22:04;;;;;;;5.20;1.50;;;;;;;;;;5107707;27;20043;-72
2022/01/09 08:24:31;;;;;;;8.10;1.92;;;;;;;;;;5088000;27;20050;-72
2022/01/09 08:26:57;;;;;;;5.60;1.58;;;;;;;;;;5052926;27;20377;-73
2022/01/09 08:29:23;;;;;;;5.78;1.50;;;;;;;;;;5097670;27;20057;-73
2022/01/09 08:31:49;;;;;;;5.45;1.50;;;;;;;;;;5105234;27;20042;-73
2022/01/09 08:34:15;;;;;;;6.90;1.60;;;;;;;;;;5107120;27;20039;-73
2022/01/09 08:36:41;;;;;;;5.82;1.33;;;;;;;;;;5105914;27;20067;-72
2022/01/09 08:39:07;;;;;;;6.30;1.50;;;;;;;;;;5106880;27;20042;-73
2022/01/09 08:41:34;;;;;;;6.82;1.50;;;;;;;;;;5107431;27;20036;-73
2022/01/09 08:44:04;;;;;;;4.35;1.23;;;;;;;;;;5090613;27;20070;-73
2022/01/09 08:46:31;;;;;;;5.82;1.52;;;;;;;;;;5091118;28;20085;-73
2022/01/09 08:48:57;;;;;;;6.43;1.77;;;;;;;;;;5106690;27;20520;-72
2022/01/09 08:51:23;;;;;;;5.18;1.30;;;;;;;;;;5080268;27;20444;-73
2022/01/09 08:53:52;;;;;;;6.28;1.60;;;;;;;;;;5081993;28;20056;-71
2022/01/09 08:56:19;;;;;;;7.25;1.75;;;;;;;;;;5086741;28;20035;-73
2022/01/09 08:58:45;;;;;;;4.85;1.40;;;;;;;;;;5088273;27;20074;-73
2022/01/09 09:01:11;;;;;;;5.47;1.30;;;;;;;;;;5106591;27;20051;-73
2022/01/09 09:03:40;;;;;;;5.28;1.25;;;;;;;;;;5089586;27;20066;-73
2022/01/09 09:06:07;;;;;;;4.95;1.23;;;;;;;;;;5106919;27;20039;-73
2022/01/09 09:08:34;;;;;;;5.32;1.52;;;;;;;;;;5105528;27;20100;-72
2022/01/09 09:11:00;;;;;;;7.13;1.67;;;;;;;;;;5106864;27;20638;-73
2022/01/09 09:13:26;;;;;;;7.03;1.40;;;;;;;;;;5105491;27;20634;-72
2022/01/09 09:15:52;;;;;;;4.97;1.33;;;;;;;;;;5106445;27;20055;-72
2022/01/09 09:18:18;;;;;;;5.60;1.60;;;;;;;;;;5089572;27;20051;-73
2022/01/09 09:20:44;;;;;;;7.40;1.40;;;;;;;;;;5106400;27;20608;-72
2022/01/09 09:23:10;;;;;;;6.85;1.50;;;;;;;;;;5105250;27;20047;-71
2022/01/09 09:25:36;;;;;;;5.63;1.40;;;;;;;;;;5106557;27;20103;-71
2022/01/09 09:28:02;;;;;;;4.18;1.25;;;;;;;;;;5124374;27;20706;-72
2022/01/09 09:30:28;;;;;;;6.78;1.42;;;;;;;;;;5106863;27;20035;-72
2022/01/09 09:32:54;;;;;;;4.82;1.42;;;;;;;;;;5097695;27;20718;-72
2022/01/09 09:35:20;;;;;;;6.32;1.30;;;;;;;;;;5106450;27;20591;-73
2022/01/09 09:37:47;;;;;;;3.72;1.20;;;;;;;;;;5105213;27;20042;-72
2022/01/09 09:40:13;;;;;;;5.53;1.30;;;;;;;;;;5089316;27;20441;-72
2022/01/09 09:42:39;;;;;;;5.47;1.30;;;;;;;;;;5089020;27;20130;-72
2022/01/09 09:45:06;;;;;;;5.47;1.45;;;;;;;;;;5106941;27;20084;-74
2022/01/09 09:47:33;;;;;;;5.78;1.50;;;;;;;;;;5089380;27;20547;-70
2022/01/09 09:49:59;;;;;;;6.03;1.35;;;;;;;;;;5089667;27;20043;-73
2022/01/09 09:52:25;;;;;;;5.43;1.33;;;;;;;;;;5101807;28;20126;-73
2022/01/09 09:54:52;;;;;;;6.72;1.48;;;;;;;;;;5095348;28;20667;-73
2022/01/09 09:57:18;;;;;;;5.32;1.48;;;;;;;;;;5091109;27;20043;-72
2022/01/09 09:59:44;;;;;;;5.40;1.58;;;;;;;;;;5106264;27;20522;-71
2022/01/09 10:02:15;;;;;;;6.97;1.75;;;;;;;;;;5104526;28;20072;-72
2022/01/09 10:04:58;;;;;;;5.40;1.50;;;;;;;;;;5106733;27;20035;-72
2022/01/09 10:07:25;;;;;;;6.20;1.80;;;;;;;;;;5095058;27;20646;-72
2022/01/09 10:09:55;;;;;;;5.57;1.20;;;;;;;;;;5073207;28;20024;-72
2022/01/09 10:12:25;;;;;;;6.70;1.40;;;;;;;;;;5105163;28;20047;-72
2022/01/09 10:14:53;;;;;;;7.32;1.80;;;;;;;;;;5106627;28;20050;-72
2022/01/09 10:17:20;;;;;;;6.28;1.60;;;;;;;;;;5104992;28;20074;-72
2022/01/09 10:19:52;;;;;;;7.28;1.40;;;;;;;;;;5106541;27;20043;-72
2022/01/09 10:22:43;;;;;;;6.07;1.30;;;;;;;;;;5104195;28;20039;-72
2022/01/09 10:25:30;;;;;;;7.43;1.45;;;;;;;;;;5077831;28;20142;-72
2022/01/09 10:28:05;;;;;;;5.95;1.50;;;;;;;;;;5088726;28;20050;-71
2022/01/09 10:30:41;;;;;;;6.45;1.20;;;;;;;;;;5124354;28;20043;-71
2022/01/09 10:33:08;;;;;;;5.35;1.35;;;;;;;;;;5088620;28;20043;-71
2022/01/09 10:35:35;;;;;;;5.40;1.50;;;;;;;;;;5106425;28;20601;-72
2022/01/09 10:38:04;;;;;;;7.57;1.73;;;;;;;;;;5087339;28;20044;-72
2022/01/09 10:40:32;;;;;;;6.65;1.40;;;;;;;;;;5071596;28;20060;-72
2022/01/09 10:43:03;;;;;;;4.07;1.23;;;;;;;;;;5091511;28;20104;-72
2022/01/09 10:45:30;;;;;;;6.40;1.45;;;;;;;;;;5098663;28;20043;-72
2022/01/09 10:48:02;;;;;;;5.32;1.20;;;;;;;;;;5085833;28;20043;-74
2022/01/09 10:50:29;;;;;;;4.95;1.50;;;;;;;;;;5087674;28;20071;-72
2022/01/09 10:53:17;;;;;;;6.35;1.40;;;;;;;;;;5115731;27;20564;-72
2022/01/09 10:55:43;;;;;;;5.97;1.33;;;;;;;;;;5091307;28;20078;-72
2022/01/09 10:58:17;;;;;;;6.05;1.38;;;;;;;;;;5087563;28;20050;-72
2022/01/09 11:00:44;;;;;;;5.25;1.48;;;;;;;;;;5086446;28;20638;-72
2022/01/09 11:03:10;;;;;;;5.65;1.10;;;;;;;;;;5087391;28;20027;-72
2022/01/09 11:05:36;;;;;;;6.75;1.38;;;;;;;;;;5103207;27;20047;-72
2022/01/09 11:08:03;;;;;;;4.78;1.40;;;;;;;;;;5095188;28;20044;-72
2022/01/09 11:10:30;;;;;;;8.07;1.30;;;;;;;;;;5101401;27;20039;-73
2022/01/09 11:12:59;;;;;;;6.28;1.58;;;;;;;;;;5092702;28;20139;-73
2022/01/09 11:15:29;;;;;;;7.90;1.67;;;;;;;;;;5092192;27;20043;-74
2022/01/09 11:17:58;;;;;;;8.43;1.73;;;;;;;;;;5082347;27;20047;-72
2022/01/09 11:20:25;;;;;;;9.30;1.60;;;;;;;;;;5076088;27;20062;-75
2022/01/09 11:22:53;;;;;;;9.77;1.80;;;;;;;;;;5134895;27;20046;-71
2022/01/09 11:25:36;;;;;;;7.88;1.60;;;;;;;;;;5110018;27;20067;-72
2022/01/09 11:28:06;;;;;;;8.25;1.73;;;;;;;;;;5090917;27;20680;-72
2022/01/09 11:30:50;;;;;;;11.10;1.55;;;;;;;;;;5073677;27;20232;-72
2022/01/09 11:33:19;;;;;;;9.23;1.63;;;;;;;;;;5094992;27;20042;-72
2022/01/09 11:35:54;;;;;;;9.05;1.80;;;;;;;;;;5103437;27;20524;-72
2022/01/09 11:38:36;;;;;;;8.70;1.70;;;;;;;;;;5087846;27;20047;-72
2022/01/09 11:41:19;;;;;;;6.43;1.30;;;;;;;;;;5093841;28;20079;-72
2022/01/09 11:43:52;;;;;;;6.32;1.60;;;;;;;;;;5140988;27;20042;-72
2022/01/09 11:46:18;;;;;;;7.65;1.40;;;;;;;;;;5092190;27;20049;-73
2022/01/09 11:48:53;;;;;;;7.30;1.45;;;;;;;;;;5107638;27;20081;-72
2022/01/09 11:51:27;;;;;;;5.00;1.08;;;;;;;;;;5109186;27;20678;-72
2022/01/09 11:53:57;;;;;;;6.60;1.30;;;;;;;;;;5091218;27;20073;-72
2022/01/09 11:56:42;;;;;;;6.45;1.42;;;;;;;;;;5091780;27;20039;-72
2022/01/09 11:59:37;;;;;;;8.48;1.63;;;;;;;;;;5089170;28;20043;-72
2022/01/09 12:02:12;;;;;;;5.55;1.30;;;;;;;;;;5069358;27;20507;-72
2022/01/09 12:04:41;;;;;;;5.18;1.25;;;;;;;;;;5072863;27;20241;-72
2022/01/09 12:07:12;;;;;;;6.03;1.50;;;;;;;;;;5122814;27;20601;-73
2022/01/09 12:09:42;;;;;;;9.73;1.55;;;;;;;;;;5091964;28;20101;-72
2022/01/09 12:12:11;;;;;;;5.22;1.15;;;;;;;;;;5092088;27;20104;-72
2022/01/09 12:14:44;;;;;;;6.80;1.48;;;;;;;;;;5107392;27;20082;-72
2022/01/09 12:17:28;;;;;;;4.45;1.35;;;;;;;;;;5106692;27;20043;-72
2022/01/09 12:19:55;;;;;;;5.38;1.30;;;;;;;;;;5108749;27;20043;-72
2022/01/09 12:22:43;;;;;;;7.05;1.50;;;;;;;;;;5107160;27;20055;-72
2022/01/09 12:25:32;;;;;;;6.32;1.40;;;;;;;;;;5108169;27;20051;-73
2022/01/09 12:28:08;;;;;;;7.80;1.38;;;;;;;;;;5092383;27;20059;-73
2022/01/09 12:30:50;;;;;;;6.68;1.20;;;;;;;;;;5108483;27;20054;-72
2022/01/09 12:33:35;;;;;;;6.00;1.20;;;;;;;;;;5106816;27;20047;-71
2022/01/09 12:36:13;;;;;;;5.63;1.23;;;;;;;;;;5090919;27;20498;-72
2022/01/09 12:38:46;;;;;;;5.43;1.27;;;;;;;;;;5106909;27;20043;-72
2022/01/09 12:41:15;;;;;;;6.75;1.42;;;;;;;;;;5108270;27;20534;-72
2022/01/09 12:43:41;;;;;;;6.25;1.67;;;;;;;;;;5073587;28;20492;-71
2022/01/09 12:46:09;;;;;;;5.60;1.27;;;;;;;;;;5069877;28;20040;-72
2022/01/09 12:48:35;;;;;;;6.75;1.38;;;;;;;;;;5087535;27;20179;-72
2022/01/09 12:51:12;;;;;;;6.03;1.30;;;;;;;;;;5107179;27;20047;-71
2022/01/09 12:53:42;;;;;;;5.88;1.33;;;;;;;;;;5090543;27;20035;-72
2022/01/09 12:56:10;;;;;;;4.78;1.10;;;;;;;;;;5107509;27;20501;-72
2022/01/09 12:58:39;;;;;;;5.05;1.20;;;;;;;;;;5106470;27;20049;-73
2022/01/09 13:01:06;;;;;;;5.32;1.25;;;;;;;;;;5090792;27;20043;-72
2022/01/09 13:03:34;;;;;;;3.72;1.10;;;;;;;;;;5090180;27;20031;-72
2022/01/09 13:06:07;;;;;;;5.78;1.40;;;;;;;;;;5090462;27;20051;-72
2022/01/09 13:08:34;;;;;;;5.07;1.23;;;;;;;;;;5101575;27;20175;-72
2022/01/09 13:11:01;;;;;;;4.55;1.45;;;;;;;;;;5096708;27;20045;-72
2022/01/09 13:13:29;;;;;;;5.68;1.23;;;;;;;;;;5089108;27;20055;-73
2022/01/09 13:15:55;;;;;;;5.13;1.40;;;;;;;;;;5089469;27;20432;-72
2022/01/09 13:18:40;;;;;;;4.55;1.20;;;;;;;;;;5106104;27;20047;-72
2022/01/09 13:21:10;;;;;;;5.63;1.23;;;;;;;;;;5106591;27;20081;-72
2022/01/09 13:23:49;;;;;;;4.68;1.10;;;;;;;;;;5106045;27;20035;-72
2022/01/09 13:26:16;;;;;;;6.93;1.85;;;;;;;;;;5125631;27;20050;-72
2022/01/09 13:28:44;;;;;;;5.90;1.48;;;;;;;;;;5106401;27;20054;-72
2022/01/09 13:31:11;;;;;;;6.22;1.30;;;;;;;;;;5106012;27;20092;-72
2022/01/09 13:33:49;;;;;;;5.03;1.10;;;;;;;;;;5106180;27;20476;-72
2022/01/09 13:36:32;;;;;;;5.45;1.20;;;;;;;;;;5106785;27;20047;-72
2022/01/09 13:38:58;;;;;;;4.93;1.30;;;;;;;;;;5106787;27;20609;-72
2022/01/09 13:41:25;;;;;;;5.05;1.30;;;;;;;;;;5090127;27;20457;-72
2022/01/09 13:43:51;;;;;;;5.28;1.08;;;;;;;;;;5087796;27;20042;-72
2022/01/09 13:46:17;;;;;;;5.80;1.25;;;;;;;;;;5112011;27;20413;-72
2022/01/09 13:48:44;;;;;;;4.70;1.13;;;;;;;;;;5087454;27;20681;-72
2022/01/09 13:51:10;;;;;;;4.50;1.00;;;;;;;;;;5124143;27;20088;-72
2022/01/09 13:53:36;;;;;;;3.92;1.13;;;;;;;;;;5089062;27;20138;-72
2022/01/09 13:56:05;;;;;;;3.38;1.10;;;;;;;;;;5106628;27;20049;-72
2022/01/09 13:58:31;;;;;;;5.25;1.25;;;;;;;;;;5088847;28;20035;-72
2022/01/09 14:00:57;;;;;;;4.20;1.10;;;;;;;;;;5106068;28;20043;-72
2022/01/09 14:03:27;;;;;;;5.32;1.20;;;;;;;;;;5105256;27;20043;-72
2022/01/09 14:05:54;;;;;;;5.88;1.17;;;;;;;;;;5089511;27;20396;-72
2022/01/09 14:08:21;;;;;;;3.47;0.90;;;;;;;;;;5106183;27;20047;-72
2022/01/09 14:10:47;;;;;;;4.88;1.02;;;;;;;;;;5090203;28;20627;-72
2022/01/09 14:13:20;;;;;;;4.80;1.00;;;;;;;;;;5088882;28;20051;-72
2022/01/09 14:15:47;;;;;;;3.85;1.00;;;;;;;;;;5082007;28;21692;-72
2022/01/09 14:18:30;;;;;;;4.43;1.00;;;;;;;;;;5070662;28;20074;-72
2022/01/09 14:21:04;;;;;;;3.40;0.90;;;;;;;;;;5081459;28;20027;-72
2022/01/09 14:23:37;;;;;;;4.75;1.15;;;;;;;;;;5101104;28;20713;-72
2022/01/09 14:26:08;;;;;;;6.30;1.00;;;;;;;;;;5106165;28;20046;-72
2022/01/09 14:28:34;;;;;;;3.53;1.00;;;;;;;;;;5100821;28;20194;-73
2022/01/09 14:31:08;;;;;;;5.22;1.30;;;;;;;;;;5098863;28;20494;-73
2022/01/09 14:33:34;;;;;;;9.10;1.80;;;;;;;;;;5102069;28;20111;-73
2022/01/09 14:36:03;;;;;;;7.00;1.08;;;;;;;;;;5091105;27;20035;-74
2022/01/09 14:38:30;;;;;;;6.28;1.05;;;;;;;;;;5071885;28;20143;-74
2022/01/09 14:40:58;;;;;;;6.07;1.23;;;;;;;;;;5110739;27;20082;-74
2022/01/09 14:43:25;;;;;;;7.00;1.48;;;;;;;;;;5077206;28;20035;-74
2022/01/09 14:45:52;;;;;;;7.40;1.20;;;;;;;;;;5087561;27;20085;-74
2022/01/09 14:48:22;;;;;;;4.97;0.98;;;;;;;;;;5102975;27;20520;-74